createdAt,value
2022-07-27T00:01:04.703Z,11.38
2022-07-27T00:03:32.633Z,10.80
2022-07-27T00:06:00.794Z,9.93
2022-07-27T00:08:28.103Z,9.68
2022-07-27T00:10:55.636Z,9.90
2022-07-27T00:13:23.039Z,9.55
2022-07-27T00:15:51.534Z,8.88
2022-07-27T00:18:19.616Z,9.18
2022-07-27T00:20:49.662Z,8.95
2022-07-27T00:23:17.020Z,8.48
2022-07-27T00:25:44.435Z,8.20
2022-07-27T00:28:11.735Z,7.55
2022-07-27T00:30:39.050Z,7.65
2022-07-27T00:33:06.780Z,6.90
2022-07-27T00:35:34.257Z,6.40
2022-07-27T00:38:03.315Z,6.35
2022-07-27T00:40:31.726Z,6.32
2022-07-27T00:42:59.013Z,6.78
2022-07-27T00:45:26.370Z,6.40
2022-07-27T00:47:55.379Z,6.75
2022-07-27T00:50:23.475Z,6.40
2022-07-27T00:52:51.399Z,6.45
2022-07-27T00:55:24.052Z,6.30
2022-07-27T00:57:53.206Z,5.65
2022-07-27T01:00:29.419Z,5.90
2022-07-27T01:02:57.602Z,6.20
2022-07-27T01:05:26.570Z,5.78
2022-07-27T01:08:05.763Z,6.28
2022-07-27T01:10:33.065Z,6.10
2022-07-27T01:13:00.509Z,6.15
2022-07-27T01:15:27.952Z,5.90
2022-07-27T01:17:55.888Z,6.43
2022-07-27T01:20:23.228Z,6.65
2022-07-27T01:22:50.956Z,6.22
2022-07-27T01:25:18.211Z,6.32
2022-07-27T01:27:45.577Z,6.35
2022-07-27T01:30:30.309Z,5.78
2022-07-27T01:33:04.676Z,5.82
2022-07-27T01:35:32.015Z,6.45
2022-07-27T01:38:03.168Z,7.10
2022-07-27T01:40:30.920Z,7.03
2022-07-27T01:42:58.250Z,7.57
2022-07-27T01:45:25.755Z,7.80
2022-07-27T01:47:53.084Z,9.43
2022-07-27T01:50:20.399Z,10.32
2022-07-27T01:52:48.726Z,9.95
2022-07-27T01:55:16.063Z,10.80
2022-07-27T01:57:43.388Z,11.10
2022-07-27T02:00:12.503Z,10.52
2022-07-27T02:02:40.553Z,10.68
2022-07-27T02:05:08.744Z,10.70
2022-07-27T02:07:39.904Z,10.25
2022-07-27T02:10:07.501Z,11.88
2022-07-27T02:12:35.654Z,10.15
2022-07-27T02:15:15.059Z,10.77
2022-07-27T02:17:43.800Z,10.18
2022-07-27T02:20:14.808Z,11.38
2022-07-27T02:22:42.590Z,11.40
2022-07-27T02:25:10.277Z,11.95
2022-07-27T02:27:40.015Z,10.90
2022-07-27T02:30:07.962Z,11.73
2022-07-27T02:32:37.396Z,12.10
2022-07-27T02:35:18.516Z,10.70
2022-07-27T02:37:48.751Z,10.70
2022-07-27T02:40:18.717Z,12.00
2022-07-27T02:42:46.290Z,10.82
2022-07-27T02:45:16.575Z,11.35
2022-07-27T02:47:46.058Z,11.05
2022-07-27T02:50:13.664Z,11.35
2022-07-27T02:52:40.928Z,10.95
2022-07-27T02:55:08.922Z,10.80
2022-07-27T02:57:38.007Z,11.20
2022-07-27T03:00:15.031Z,10.32
2022-07-27T03:02:42.794Z,10.07
2022-07-27T03:05:10.532Z,10.02
2022-07-27T03:07:40.780Z,10.65
2022-07-27T03:10:08.403Z,10.55
2022-07-27T03:12:37.841Z,9.98
2022-07-27T03:15:05.542Z,10.60
2022-07-27T03:17:33.742Z,11.00
2022-07-27T03:20:01.031Z,10.73
2022-07-27T03:22:32.704Z,10.90
2022-07-27T03:25:00.401Z,11.30
2022-07-27T03:27:28.324Z,11.77
2022-07-27T03:29:56.759Z,12.63
2022-07-27T03:32:24.047Z,13.10
2022-07-27T03:34:51.360Z,15.55
2022-07-27T03:37:20.009Z,16.65
2022-07-27T03:39:47.598Z,17.75
2022-07-27T03:42:14.953Z,19.42
2022-07-27T03:44:43.446Z,19.15
2022-07-27T03:47:10.750Z,19.30
2022-07-27T03:49:38.061Z,18.63
2022-07-27T03:52:05.779Z,17.00
2022-07-27T03:54:33.235Z,17.48
2022-07-27T03:57:01.743Z,15.93
2022-07-27T03:59:29.321Z,15.75
2022-07-27T04:01:56.712Z,15.57
2022-07-27T04:04:24.243Z,14.30
2022-07-27T04:06:52.350Z,14.95
2022-07-27T04:09:21.546Z,13.07
2022-07-27T04:11:50.907Z,13.18
2022-07-27T04:14:18.908Z,12.75
2022-07-27T04:16:47.133Z,12.93
2022-07-27T04:19:14.911Z,12.25
2022-07-27T04:21:42.911Z,13.25
2022-07-27T04:24:10.269Z,12.90
2022-07-27T04:26:37.546Z,12.43
2022-07-27T04:29:04.838Z,12.32
2022-07-27T04:31:32.192Z,13.25
2022-07-27T04:33:59.511Z,11.95
2022-07-27T04:36:26.854Z,12.63
2022-07-27T04:38:54.105Z,11.60
2022-07-27T04:41:21.768Z,10.93
2022-07-27T04:43:49.012Z,10.00
2022-07-27T04:46:16.562Z,9.25
2022-07-27T04:48:49.510Z,9.18
2022-07-27T04:51:17.777Z,9.02
2022-07-27T04:53:54.015Z,9.40
2022-07-27T04:56:26.921Z,7.10
2022-07-27T04:58:55.122Z,6.95
2022-07-27T05:01:27.363Z,7.10
2022-07-27T05:03:56.727Z,6.93
2022-07-27T05:06:24.083Z,6.20
2022-07-27T05:08:51.369Z,6.50
2022-07-27T05:11:18.714Z,5.60
2022-07-27T05:13:45.979Z,6.70
2022-07-27T05:16:13.885Z,6.30
2022-07-27T05:18:41.754Z,5.57
2022-07-27T05:21:09.961Z,5.07
2022-07-27T05:23:37.287Z,5.38
2022-07-27T05:26:04.757Z,4.65
2022-07-27T05:28:32.393Z,4.05
2022-07-27T05:31:00.106Z,3.45
2022-07-27T05:33:27.422Z,4.68
2022-07-27T05:35:58.599Z,3.20
2022-07-27T05:38:26.222Z,3.38
2022-07-27T05:40:53.570Z,2.60
2022-07-27T05:43:21.159Z,2.75
2022-07-27T05:45:48.517Z,2.63
2022-07-27T05:48:16.811Z,2.28
2022-07-27T05:50:44.132Z,2.40
2022-07-27T05:53:11.497Z,2.20
2022-07-27T05:55:38.782Z,2.35
2022-07-27T05:58:06.501Z,3.13
2022-07-27T06:00:33.888Z,3.10
2022-07-27T06:03:01.269Z,3.03
2022-07-27T06:05:28.685Z,3.58
2022-07-27T06:07:58.870Z,2.90
2022-07-27T06:10:29.922Z,2.53
2022-07-27T06:13:00.144Z,2.00
2022-07-27T06:15:27.618Z,2.45
2022-07-27T06:17:56.217Z,2.60
2022-07-27T06:20:24.646Z,2.67
2022-07-27T06:22:54.216Z,2.40
2022-07-27T06:25:21.884Z,2.40
2022-07-27T06:27:51.848Z,2.50
2022-07-27T06:30:20.175Z,2.08
2022-07-27T06:32:48.274Z,2.00
2022-07-27T06:35:16.183Z,2.10
2022-07-27T06:37:48.438Z,2.08
2022-07-27T06:40:16.790Z,2.67
2022-07-27T06:42:44.542Z,2.13
2022-07-27T06:45:11.847Z,2.85
2022-07-27T06:47:49.795Z,2.35
2022-07-27T06:50:18.510Z,1.98
2022-07-27T06:52:46.504Z,2.20
2022-07-27T06:55:13.932Z,2.60
2022-07-27T06:57:43.084Z,2.75
2022-07-27T07:00:12.209Z,2.50
2022-07-27T07:02:54.873Z,2.78
2022-07-27T07:05:23.324Z,2.30
2022-07-27T07:07:50.726Z,2.88
2022-07-27T07:10:18.259Z,3.45
2022-07-27T07:12:46.385Z,2.78
2022-07-27T07:15:13.710Z,2.55
2022-07-27T07:17:41.287Z,2.65
2022-07-27T07:20:09.441Z,3.45
2022-07-27T07:22:36.795Z,2.88
2022-07-27T07:25:04.254Z,3.60
2022-07-27T07:27:32.749Z,2.28
2022-07-27T07:30:00.222Z,2.50
2022-07-27T07:32:33.610Z,2.85
2022-07-27T07:35:03.638Z,2.40
2022-07-27T07:37:33.994Z,2.47
2022-07-27T07:40:24.823Z,2.88
2022-07-27T07:42:53.910Z,3.22
2022-07-27T07:45:24.550Z,2.67
2022-07-27T07:47:52.020Z,2.20
2022-07-27T07:50:22.183Z,2.85
2022-07-27T07:52:51.284Z,3.00
2022-07-27T07:55:25.958Z,2.35
2022-07-27T07:57:53.570Z,2.85
2022-07-27T08:00:21.233Z,2.40
2022-07-27T08:02:50.740Z,2.30
2022-07-27T08:05:22.034Z,2.80
2022-07-27T08:07:49.673Z,2.13
2022-07-27T08:10:17.890Z,2.10
2022-07-27T08:12:46.565Z,2.17
2022-07-27T08:15:14.814Z,2.15
2022-07-27T08:17:43.324Z,2.20
2022-07-27T08:20:13.054Z,2.47
2022-07-27T08:22:40.554Z,2.28
2022-07-27T08:25:08.302Z,2.50
2022-07-27T08:27:40.218Z,2.50
2022-07-27T08:30:09.433Z,2.30
2022-07-27T08:33:06.771Z,2.50
2022-07-27T08:35:34.429Z,2.78
2022-07-27T08:38:03.024Z,2.80
2022-07-27T08:40:46.800Z,2.45
2022-07-27T08:43:23.795Z,2.83
2022-07-27T08:45:56.576Z,2.55
2022-07-27T08:48:29.422Z,2.47
2022-07-27T08:50:56.792Z,2.58
2022-07-27T08:53:24.381Z,2.42
2022-07-27T08:55:51.776Z,2.70
2022-07-27T08:58:19.183Z,2.50
2022-07-27T09:00:48.461Z,2.58
2022-07-27T09:03:19.435Z,2.40
2022-07-27T09:05:53.242Z,2.33
2022-07-27T09:08:25.347Z,2.50
2022-07-27T09:10:54.679Z,3.00
2022-07-27T09:13:32.087Z,2.20
2022-07-27T09:16:21.220Z,2.60
2022-07-27T09:19:01.456Z,2.70
2022-07-27T09:21:32.745Z,2.38
2022-07-27T09:24:23.237Z,2.63
2022-07-27T09:27:02.758Z,2.65
2022-07-27T09:29:34.512Z,2.70
2022-07-27T09:32:01.825Z,2.50
2022-07-27T09:34:31.022Z,2.50
2022-07-27T09:36:58.828Z,2.85
2022-07-27T09:39:27.191Z,2.50
2022-07-27T09:42:00.071Z,2.17
2022-07-27T09:44:43.151Z,2.75
2022-07-27T09:47:23.160Z,2.33
2022-07-27T09:49:50.613Z,2.58
2022-07-27T09:52:28.336Z,4.13
2022-07-27T09:55:01.880Z,2.35
2022-07-27T09:57:29.273Z,2.60
2022-07-27T10:00:10.491Z,1.95
2022-07-27T10:02:38.936Z,2.42
2022-07-27T10:05:07.655Z,2.30
2022-07-27T10:07:35.940Z,2.42
2022-07-27T10:10:05.599Z,2.10
2022-07-27T10:12:32.984Z,1.90
2022-07-27T10:15:00.299Z,2.45
2022-07-27T10:17:29.253Z,2.28
2022-07-27T10:22:49.249Z,2.63
2022-07-27T10:25:16.607Z,2.83
2022-07-27T10:27:47.300Z,2.72
2022-07-27T10:30:17.231Z,2.20
2022-07-27T10:32:51.560Z,2.38
2022-07-27T10:35:34.653Z,2.10
2022-07-27T10:38:11.979Z,2.15
2022-07-27T10:40:39.432Z,1.35
2022-07-27T10:43:18.349Z,1.40
2022-07-27T10:45:50.322Z,1.48
2022-07-27T10:48:45.886Z,1.55
2022-07-27T10:51:21.336Z,1.70
2022-07-27T10:54:11.426Z,1.52
2022-07-27T10:56:49.577Z,1.80
2022-07-27T11:00:12.376Z,1.42
2022-07-27T11:02:41.632Z,1.70
2022-07-27T11:05:42.629Z,1.63
2022-07-27T11:10:48.248Z,1.60
2022-07-27T11:13:18.343Z,1.80
2022-07-27T11:16:28.501Z,1.40
2022-07-27T11:19:04.238Z,1.85
2022-07-27T11:21:36.615Z,1.38
2022-07-27T11:24:16.848Z,1.30
2022-07-27T11:26:49.524Z,1.20
2022-07-27T11:29:18.378Z,1.88
2022-07-27T11:31:56.057Z,1.20
2022-07-27T11:34:35.545Z,1.27
2022-07-27T11:37:04.387Z,1.55
2022-07-27T11:44:53.515Z,1.60
2022-07-27T11:47:24.211Z,1.63
2022-07-27T11:49:52.625Z,1.75
2022-07-27T11:52:20.316Z,1.77
2022-07-27T11:54:51.314Z,1.60
2022-07-27T11:57:20.948Z,1.42
2022-07-27T11:59:48.528Z,1.70
2022-07-27T12:02:20.439Z,1.75
2022-07-27T12:04:52.690Z,1.52
2022-07-27T12:07:22.141Z,1.58
2022-07-27T12:09:53.439Z,1.45
2022-07-27T12:12:26.920Z,1.55
2022-07-27T12:14:59.322Z,1.55
2022-07-27T12:17:32.639Z,1.73
2022-07-27T12:20:16.700Z,1.90
2022-07-27T12:22:50.804Z,1.80
2022-07-27T12:25:18.071Z,1.75
2022-07-27T12:28:01.608Z,1.77
2022-07-27T12:30:35.514Z,1.88
2022-07-27T12:33:04.018Z,2.03
2022-07-27T12:35:37.403Z,1.85
2022-07-27T12:38:08.146Z,1.50
2022-07-27T12:40:49.749Z,2.05
2022-07-27T12:43:18.573Z,2.03
2022-07-27T12:45:46.599Z,2.00
2022-07-27T12:48:16.547Z,1.80
2022-07-27T12:50:45.513Z,1.88
2022-07-27T12:53:15.268Z,2.35
2022-07-27T12:55:43.917Z,2.88
2022-07-27T12:58:14.026Z,2.22
2022-07-27T13:00:42.016Z,2.20
2022-07-27T13:03:09.511Z,2.10
2022-07-27T13:05:36.810Z,2.25
2022-07-27T13:08:04.904Z,2.50
2022-07-27T13:10:34.021Z,2.40
2022-07-27T13:13:08.092Z,2.50
2022-07-27T13:15:35.785Z,2.10
2022-07-27T13:18:04.245Z,2.20
2022-07-27T13:20:31.719Z,1.90
2022-07-27T13:22:59.022Z,2.38
2022-07-27T13:25:28.932Z,1.88
2022-07-27T13:27:56.654Z,2.08
2022-07-27T13:30:25.100Z,2.80
2022-07-27T13:32:52.517Z,2.33
2022-07-27T13:35:19.862Z,2.65
2022-07-27T13:37:47.277Z,3.10
2022-07-27T13:40:15.013Z,2.85
2022-07-27T13:42:44.289Z,2.88
2022-07-27T13:45:14.929Z,2.45
2022-07-27T13:47:42.606Z,1.92
2022-07-27T13:50:17.767Z,1.55
2022-07-27T13:52:49.646Z,1.60
2022-07-27T13:55:17.226Z,1.65
2022-07-27T13:57:44.849Z,1.80
2022-07-27T14:00:12.737Z,1.92
2022-07-27T14:02:42.614Z,1.42
2022-07-27T14:05:13.157Z,1.58
2022-07-27T14:07:42.917Z,1.70
2022-07-27T14:10:30.627Z,1.58
2022-07-27T14:13:08.158Z,1.83
2022-07-27T14:15:50.457Z,1.50
2022-07-27T14:18:29.629Z,1.70
2022-07-27T14:21:01.557Z,1.70
2022-07-27T14:23:29.493Z,1.65
2022-07-27T14:25:57.362Z,1.60
2022-07-27T14:28:25.737Z,1.50
2022-07-27T14:30:53.705Z,1.67
2022-07-27T14:33:24.111Z,1.70
2022-07-27T14:35:52.874Z,1.55
2022-07-27T14:38:27.167Z,1.73
2022-07-27T14:40:59.091Z,1.73
2022-07-27T14:43:27.369Z,1.20
2022-07-27T14:45:54.729Z,1.50
2022-07-27T14:48:32.467Z,1.55
2022-07-27T14:51:10.106Z,1.35
2022-07-27T14:53:37.511Z,1.50
2022-07-27T14:56:05.079Z,1.27
2022-07-27T14:58:32.896Z,1.52
2022-07-27T15:01:00.253Z,1.20
2022-07-27T15:03:27.726Z,1.73
2022-07-27T15:05:58.249Z,1.70
2022-07-27T15:08:25.565Z,1.70
2022-07-27T15:10:57.685Z,1.60
2022-07-27T15:13:25.662Z,1.88
2022-07-27T15:15:58.098Z,2.08
2022-07-27T15:18:26.609Z,1.95
2022-07-27T15:20:54.022Z,1.75
2022-07-27T15:23:22.497Z,1.85
2022-07-27T15:25:50.051Z,2.03
2022-07-27T15:28:17.423Z,2.03
2022-07-27T15:30:44.785Z,1.63
2022-07-27T15:33:12.130Z,1.88
2022-07-27T15:36:03.752Z,1.50
2022-07-27T15:38:31.252Z,1.40
2022-07-27T15:40:58.825Z,1.60
2022-07-27T15:43:26.090Z,1.75
2022-07-27T15:45:53.447Z,1.90
2022-07-27T15:48:21.780Z,2.22
2022-07-27T15:50:50.577Z,2.20
2022-07-27T15:53:18.764Z,2.10
2022-07-27T15:55:46.342Z,2.10
2022-07-27T15:58:17.812Z,2.10
2022-07-27T16:00:53.243Z,1.98
2022-07-27T16:03:24.355Z,2.20
2022-07-27T16:05:53.446Z,2.10
2022-07-27T16:08:21.193Z,1.98
2022-07-27T16:10:48.907Z,2.00
2022-07-27T16:13:16.340Z,2.33
2022-07-27T16:16:04.921Z,2.13
2022-07-27T16:18:38.345Z,2.10
2022-07-27T16:21:07.215Z,2.10
2022-07-27T16:23:36.222Z,2.30
2022-07-27T16:26:05.965Z,1.90
2022-07-27T16:28:39.228Z,2.55
2022-07-27T16:31:07.932Z,2.50
2022-07-27T16:33:35.457Z,2.10
2022-07-27T16:36:02.942Z,2.28
2022-07-27T16:38:30.515Z,2.40
2022-07-27T16:40:57.785Z,2.40
2022-07-27T16:43:37.247Z,2.45
2022-07-27T16:46:07.954Z,2.38
2022-07-27T16:48:41.882Z,2.40
2022-07-27T16:51:14.831Z,2.63
2022-07-27T16:53:44.120Z,2.55
2022-07-27T16:56:13.042Z,2.67
2022-07-27T16:58:41.539Z,2.30
2022-07-27T17:01:09.072Z,2.55
2022-07-27T17:03:37.615Z,2.85
2022-07-27T17:06:06.830Z,2.50
2022-07-27T17:08:35.957Z,2.63
2022-07-27T17:11:05.387Z,3.15
2022-07-27T17:13:34.692Z,2.78
2022-07-27T17:16:03.618Z,3.10
2022-07-27T17:18:35.712Z,3.05
2022-07-27T17:21:12.505Z,3.47
2022-07-27T17:23:41.564Z,3.38
2022-07-27T17:26:09.479Z,3.70
2022-07-27T17:28:39.163Z,3.72
2022-07-27T17:31:09.688Z,3.92
2022-07-27T17:33:38.246Z,3.83
2022-07-27T17:36:09.577Z,4.15
2022-07-27T17:38:45.632Z,4.03
2022-07-27T17:41:13.525Z,4.00
2022-07-27T17:43:43.275Z,4.93
2022-07-27T17:46:11.145Z,6.03
2022-07-27T17:48:39.129Z,6.63
2022-07-27T17:51:07.141Z,8.18
2022-07-27T17:53:35.039Z,7.50
2022-07-27T17:56:02.914Z,7.43
2022-07-27T17:58:30.770Z,7.00
2022-07-27T18:00:58.933Z,6.55
2022-07-27T18:03:26.775Z,5.80
2022-07-27T18:05:54.173Z,4.97
2022-07-27T18:08:21.857Z,5.38
2022-07-27T18:10:51.474Z,5.57
2022-07-27T18:13:18.854Z,4.82
2022-07-27T18:15:48.957Z,4.55
2022-07-27T18:18:19.806Z,5.70
2022-07-27T18:20:48.371Z,5.25
2022-07-27T18:23:16.086Z,5.05
2022-07-27T18:25:45.055Z,4.95
2022-07-27T18:28:14.120Z,4.70
2022-07-27T18:30:46.113Z,5.47
2022-07-27T18:33:16.821Z,5.03
2022-07-27T18:35:44.390Z,4.93
2022-07-27T18:38:12.467Z,4.72
2022-07-27T18:40:41.342Z,4.43
2022-07-27T18:43:08.918Z,4.75
2022-07-27T18:45:38.505Z,4.53
2022-07-27T18:48:06.374Z,4.50
2022-07-27T18:50:38.927Z,4.68
2022-07-27T18:53:07.082Z,4.68
2022-07-27T18:55:34.778Z,4.45
2022-07-27T18:58:02.177Z,4.63
2022-07-27T19:00:29.683Z,5.00
2022-07-27T19:02:58.132Z,5.30
2022-07-27T19:05:32.719Z,5.18
2022-07-27T19:08:13.243Z,4.90
2022-07-27T19:10:43.022Z,5.00
2022-07-27T19:13:14.212Z,4.80
2022-07-27T19:15:41.723Z,4.55
2022-07-27T19:20:52.746Z,5.03
2022-07-27T19:23:21.484Z,5.28
2022-07-27T19:25:48.822Z,5.22
2022-07-27T19:28:17.150Z,5.05
2022-07-27T19:30:44.526Z,4.82
2022-07-27T19:33:12.372Z,4.70
2022-07-27T19:35:40.192Z,5.35
2022-07-27T19:38:08.535Z,5.35
2022-07-27T19:40:45.701Z,4.90
2022-07-27T19:43:13.890Z,5.38
2022-07-27T19:45:41.602Z,5.50
2022-07-27T19:48:08.975Z,5.18
2022-07-27T19:50:36.434Z,5.65
2022-07-27T19:53:06.921Z,5.97
2022-07-27T19:55:34.781Z,5.90
2022-07-27T19:58:02.080Z,5.57
2022-07-27T20:00:30.136Z,6.00
2022-07-27T20:02:57.681Z,5.28
2022-07-27T20:05:25.035Z,6.70
2022-07-27T20:07:52.976Z,5.95
2022-07-27T20:10:21.859Z,6.25
2022-07-27T20:12:49.610Z,6.00
2022-07-27T20:15:18.476Z,5.88
2022-07-27T20:17:45.729Z,6.18
2022-07-27T20:20:14.305Z,5.90
2022-07-27T20:22:41.618Z,6.25
2022-07-27T20:25:34.927Z,5.90
2022-07-27T20:28:03.363Z,5.85
2022-07-27T20:30:31.133Z,5.47
2022-07-27T20:32:58.753Z,7.10
2022-07-27T20:35:37.398Z,8.35
2022-07-27T20:38:05.314Z,8.60
2022-07-27T20:40:33.040Z,8.23
2022-07-27T20:43:00.457Z,7.32
2022-07-27T20:45:27.970Z,6.22
2022-07-27T20:47:55.824Z,6.05
2022-07-27T20:50:24.373Z,6.75
2022-07-27T20:52:54.461Z,5.70
2022-07-27T20:55:21.829Z,6.10
2022-07-27T20:57:49.415Z,5.13
2022-07-27T21:00:17.248Z,5.60
2022-07-27T21:02:44.674Z,4.95
2022-07-27T21:05:14.406Z,5.68
2022-07-27T21:07:41.836Z,5.30
2022-07-27T21:10:10.068Z,4.80
2022-07-27T21:12:37.411Z,5.28
2022-07-27T21:15:08.548Z,5.38
2022-07-27T21:17:40.173Z,6.28
2022-07-27T21:20:07.843Z,6.53
2022-07-27T21:22:35.760Z,5.75
2022-07-27T21:25:03.669Z,5.00
2022-07-27T21:27:31.511Z,5.78
2022-07-27T21:29:59.244Z,4.78
2022-07-27T21:32:26.664Z,4.80
2022-07-27T21:34:54.607Z,4.68
2022-07-27T21:37:22.018Z,4.80
2022-07-27T21:39:49.725Z,4.90
2022-07-27T21:42:19.954Z,4.45
2022-07-27T21:44:47.295Z,5.40
2022-07-27T21:47:14.842Z,5.53
2022-07-27T21:49:43.105Z,4.93
2022-07-27T21:52:11.355Z,4.82
2022-07-27T21:54:38.974Z,5.30
2022-07-27T21:57:07.125Z,5.10
2022-07-27T21:59:34.880Z,5.25
2022-07-27T22:02:02.208Z,5.40
2022-07-27T22:04:29.866Z,5.30
2022-07-27T22:06:57.397Z,5.70
2022-07-27T22:09:25.168Z,5.65
2022-07-27T22:11:52.481Z,4.82
2022-07-27T22:16:52.946Z,5.55
2022-07-27T22:19:20.591Z,5.60
2022-07-27T22:21:47.962Z,5.18
2022-07-27T22:24:16.438Z,5.97
2022-07-27T22:26:44.349Z,6.32
2022-07-27T22:29:12.283Z,6.82
2022-07-27T22:31:39.968Z,6.05
2022-07-27T22:34:07.382Z,6.28
2022-07-27T22:36:34.682Z,6.57
2022-07-27T22:39:02.074Z,6.85
2022-07-27T22:41:29.551Z,7.13
2022-07-27T22:43:57.413Z,8.20
2022-07-27T22:46:25.879Z,8.43
2022-07-27T22:48:53.409Z,7.65
2022-07-27T22:51:20.863Z,8.13
2022-07-27T22:53:49.203Z,8.60
2022-07-27T22:56:16.581Z,8.95
2022-07-27T22:58:44.124Z,8.13
2022-07-27T23:01:28.400Z,9.63
2022-07-27T23:03:58.770Z,11.45
2022-07-27T23:06:26.706Z,12.50
2022-07-27T23:08:53.979Z,11.77
2022-07-27T23:11:22.832Z,11.52
2022-07-27T23:13:52.696Z,10.10
2022-07-27T23:16:19.985Z,10.73
2022-07-27T23:18:47.289Z,10.65
2022-07-27T23:21:15.198Z,10.80
2022-07-27T23:23:53.695Z,10.82
2022-07-27T23:26:22.998Z,10.75
2022-07-27T23:31:21.798Z,11.93
2022-07-27T23:33:49.649Z,12.52
2022-07-27T23:36:16.983Z,13.32
2022-07-27T23:38:44.308Z,13.32
2022-07-27T23:41:11.672Z,12.43
2022-07-27T23:43:39.145Z,13.27
2022-07-27T23:46:11.377Z,12.85
2022-07-27T23:48:39.778Z,12.13
2022-07-27T23:51:08.967Z,12.55
2022-07-27T23:53:36.848Z,11.60
2022-07-27T23:56:04.590Z,12.65
2022-07-27T23:58:32.231Z,12.85
